createdAt,value
2019-04-23T17:03:36.219Z,0.90
2019-04-23T17:08:59.736Z,1.20
2019-04-23T17:14:07.045Z,1.20
2019-04-23T17:16:34.053Z,1.17
2019-04-23T17:19:11.431Z,0.93
2019-04-23T17:21:51.257Z,1.13
2019-04-23T17:27:10.118Z,0.90
2019-04-23T17:29:41.741Z,0.93
2019-04-23T17:32:41.233Z,1.00
2019-04-23T17:35:09.636Z,1.17
2019-04-23T17:37:48.658Z,0.80
2019-04-23T17:40:34.208Z,0.90
2019-04-23T17:43:16.579Z,1.00
2019-04-23T17:45:59.298Z,1.00
2019-04-23T17:48:34.739Z,1.00
2019-04-23T17:53:49.836Z,1.10
2019-04-23T17:56:37.181Z,0.77
2019-04-23T17:59:04.364Z,0.90
2019-04-23T18:01:36.004Z,0.70
2019-04-23T18:09:37.902Z,0.70
2019-04-23T18:12:01.915Z,0.80
2019-04-23T18:14:21.572Z,1.10
2019-04-23T18:37:32.543Z,0.20
2019-04-23T18:43:39.007Z,0.20
2019-04-23T18:46:18.687Z,0.40
2019-04-23T19:05:01.436Z,0.10
2019-04-23T19:07:42.377Z,0.20
2019-04-23T19:22:06.277Z,0.13
2019-04-23T19:24:14.050Z,0.33
2019-04-23T19:41:54.302Z,0.33
2019-04-23T19:44:08.405Z,0.20
2019-04-23T19:46:54.943Z,0.10
2019-04-23T19:51:59.598Z,0.40
2019-04-23T19:57:22.354Z,0.40
2019-04-23T19:59:50.599Z,0.50
2019-04-23T20:04:56.016Z,1.13
2019-04-23T20:07:43.111Z,1.00
2019-04-23T20:10:04.147Z,1.10
2019-04-23T20:12:42.907Z,1.00
2019-04-23T20:15:07.288Z,1.10
2019-04-23T20:17:54.526Z,1.20
2019-04-23T20:30:37.864Z,1.40
2019-04-23T20:35:46.862Z,1.00
2019-04-23T20:38:44.830Z,0.80
2019-04-23T20:41:08.235Z,0.80
2019-04-23T20:43:47.222Z,1.00
2019-04-23T20:46:06.285Z,1.10
2019-04-23T20:48:49.060Z,1.20
2019-04-23T20:51:39.194Z,1.13
2019-04-23T20:54:02.276Z,1.03
2019-04-23T21:00:14.197Z,1.40
2019-04-23T21:03:33.646Z,1.10
2019-04-23T21:05:49.995Z,0.97
2019-04-23T21:08:30.171Z,1.00
2019-04-23T21:10:48.338Z,1.27
2019-04-23T21:13:53.180Z,1.33
2019-04-23T21:16:08.539Z,1.37
2019-04-23T21:21:22.273Z,1.33
2019-04-23T21:26:37.192Z,1.40
2019-04-23T21:29:05.039Z,1.80
2019-04-23T21:31:48.432Z,1.30
2019-04-23T21:34:24.932Z,1.37
2019-04-23T21:37:06.223Z,1.37
2019-04-23T21:40:04.725Z,1.60
2019-04-23T21:42:59.062Z,1.20
2019-04-23T21:45:35.464Z,1.10
2019-04-23T21:48:10.271Z,1.10
2019-04-23T21:51:09.596Z,1.10
2019-04-23T21:53:46.387Z,1.30
2019-04-23T21:56:15.592Z,1.07
2019-04-23T22:01:36.952Z,1.40
2019-04-23T22:04:24.683Z,0.90
2019-04-23T22:06:56.047Z,1.20
2019-04-23T22:15:04.660Z,0.90
2019-04-23T22:17:46.230Z,0.93
2019-04-23T22:23:08.795Z,1.30
2019-04-23T22:25:50.581Z,1.13
2019-04-23T22:28:50.436Z,1.00
2019-04-23T22:39:52.520Z,0.97
2019-04-23T22:42:34.974Z,1.03
2019-04-23T22:45:08.927Z,1.13
2019-04-23T22:47:42.913Z,0.70
2019-04-23T22:50:18.862Z,0.77
2019-04-23T22:53:02.660Z,0.87
2019-04-23T22:55:49.768Z,0.80
2019-04-23T22:58:09.682Z,0.90
2019-04-23T23:01:26.250Z,0.77
2019-04-23T23:04:15.510Z,0.80
2019-04-23T23:12:02.297Z,0.80
2019-04-23T23:14:46.558Z,0.70
2019-04-23T23:17:22.056Z,0.87
2019-04-23T23:20:11.802Z,0.67
2019-04-23T23:22:57.290Z,0.90
2019-04-23T23:26:00.748Z,0.90
2019-04-23T23:28:58.999Z,0.90
